createdAt,value
2023-04-25T00:02:03.091Z,1
2023-04-25T00:14:03.010Z,1
2023-04-25T00:26:03.167Z,1
2023-04-25T00:38:03.099Z,1
2023-04-25T00:50:03.113Z,1
2023-04-25T01:02:03.223Z,1
2023-04-25T01:14:03.236Z,1
2023-04-25T01:26:03.133Z,1
2023-04-25T01:38:03.113Z,1
2023-04-25T01:50:03.255Z,1
2023-04-25T02:02:03.246Z,1
2023-04-25T02:14:03.198Z,1
2023-04-25T02:26:03.151Z,1
2023-04-25T02:38:03.290Z,1
2023-04-25T02:50:03.273Z,1
2023-04-25T03:02:03.196Z,1
2023-04-25T03:14:03.416Z,1
2023-04-25T03:26:03.317Z,1
2023-04-25T03:38:03.436Z,1
2023-04-25T03:50:03.231Z,1
2023-04-25T04:02:03.462Z,1
2023-04-25T04:14:03.373Z,4
2023-04-25T04:26:03.335Z,12
2023-04-25T04:38:03.265Z,35
2023-04-25T04:50:03.447Z,62
2023-04-25T05:02:03.379Z,77
2023-04-25T05:14:03.395Z,85
2023-04-25T05:26:03.513Z,89
2023-04-25T05:38:03.489Z,90
2023-04-25T05:50:03.413Z,91
2023-04-25T06:02:03.422Z,92
2023-04-25T06:14:03.564Z,93
2023-04-25T06:26:03.505Z,94
2023-04-25T06:38:03.441Z,96
2023-04-25T06:50:03.426Z,97
2023-04-25T07:02:03.552Z,98
2023-04-25T07:14:03.600Z,98
2023-04-25T07:26:03.508Z,98
2023-04-25T07:38:03.494Z,97
2023-04-25T07:50:03.618Z,97
2023-04-25T08:02:03.818Z,97
2023-04-25T08:14:03.594Z,97
2023-04-25T08:26:03.534Z,97
2023-04-25T08:38:03.666Z,97
2023-04-25T08:50:03.646Z,97
2023-04-25T09:02:03.839Z,98
2023-04-25T09:14:03.802Z,98
2023-04-25T09:26:03.676Z,98
2023-04-25T09:38:03.732Z,98
2023-04-25T09:50:03.730Z,97
2023-04-25T10:02:03.795Z,97
2023-04-25T10:14:03.727Z,97
2023-04-25T10:26:03.695Z,97
2023-04-25T10:38:03.632Z,97
2023-04-25T10:50:03.991Z,96
2023-04-25T11:02:03.907Z,96
2023-04-25T11:14:03.788Z,97
2023-04-25T11:26:03.678Z,97
2023-04-25T11:38:03.978Z,97
2023-04-25T11:50:03.784Z,97
2023-04-25T12:02:03.786Z,96
2023-04-25T12:14:03.934Z,96
2023-04-25T12:26:03.913Z,97
2023-04-25T12:38:03.886Z,97
2023-04-25T12:50:04.024Z,97
2023-04-25T13:02:03.863Z,96
2023-04-25T13:14:03.827Z,96
2023-04-25T13:26:03.935Z,96
2023-04-25T13:38:03.911Z,96
2023-04-25T13:50:03.861Z,96
2023-04-25T14:02:04.116Z,96
2023-04-25T14:14:03.995Z,96
2023-04-25T14:26:03.931Z,95
2023-04-25T14:38:03.886Z,95
2023-04-25T14:50:04.072Z,95
2023-04-25T15:02:04.020Z,95
2023-04-25T15:14:04.036Z,95
2023-04-25T15:26:03.953Z,94
2023-04-25T15:38:04.194Z,94
2023-04-25T15:50:04.708Z,94
2023-04-25T16:02:04.206Z,94
2023-04-25T16:14:04.281Z,94
2023-04-25T16:26:04.177Z,94
2023-04-25T16:38:04.086Z,93
2023-04-25T16:50:04.057Z,93
2023-04-25T17:02:04.015Z,93
2023-04-25T17:14:04.210Z,93
2023-04-25T17:26:04.132Z,93
2023-04-25T17:38:04.125Z,93
2023-04-25T17:50:04.386Z,92
2023-04-25T18:02:04.421Z,92
2023-04-25T18:14:04.500Z,91
2023-04-25T18:26:04.304Z,90
2023-04-25T18:38:04.237Z,88
2023-04-25T18:50:04.293Z,86
2023-04-25T19:02:04.232Z,82
2023-04-25T19:14:04.211Z,76
2023-04-25T19:26:04.311Z,65
2023-04-25T19:38:04.296Z,43
2023-04-25T19:50:04.230Z,24
2023-04-25T20:02:04.314Z,5
2023-04-25T20:14:04.225Z,1
2023-04-25T20:26:05.009Z,1
2023-04-25T20:38:04.307Z,1
2023-04-25T20:50:04.302Z,1
2023-04-25T21:02:04.466Z,1
2023-04-25T21:14:04.425Z,1
2023-04-25T21:26:04.342Z,1
2023-04-25T21:38:04.332Z,1
2023-04-25T21:50:04.461Z,1
2023-04-25T22:02:04.460Z,1
2023-04-25T22:14:04.404Z,1
2023-04-25T22:26:04.363Z,1
2023-04-25T22:38:04.479Z,1
2023-04-25T22:50:04.590Z,1
2023-04-25T23:02:04.470Z,1
2023-04-25T23:14:04.622Z,1
2023-04-25T23:26:04.521Z,1
2023-04-25T23:38:04.790Z,1
2023-04-25T23:50:04.693Z,1
